sensor_id;sensor_type;location;lat;lon;timestamp;P1;durP1;ratioP1;P2;durP2;ratioP2
49109;SDS011;34921;52.320;16.142;2023-05-07T13:33:08;5.07;;;2.70;;
49109;SDS011;34921;52.320;16.142;2023-05-07T13:35:37;5.35;;;3.10;;
49109;SDS011;34921;52.320;16.142;2023-05-07T13:38:05;5.15;;;3.25;;
49109;SDS011;34921;52.320;16.142;2023-05-07T13:40:33;8.50;;;4.80;;
49109;SDS011;34921;52.320;16.142;2023-05-07T13:43:01;13.08;;;6.58;;
49109;SDS011;34921;52.320;16.142;2023-05-07T13:45:29;7.15;;;4.55;;
49109;SDS011;34921;52.320;16.142;2023-05-07T13:47:58;6.75;;;3.65;;
49109;SDS011;34921;52.320;16.142;2023-05-07T13:50:26;4.45;;;2.60;;
49109;SDS011;34921;52.320;16.142;2023-05-07T13:52:57;3.80;;;2.40;;
49109;SDS011;34921;52.320;16.142;2023-05-07T13:55:25;4.92;;;1.60;;
49109;SDS011;34921;52.320;16.142;2023-05-07T13:57:56;7.67;;;4.12;;
49109;SDS011;34921;52.320;16.142;2023-05-07T14:00:26;6.45;;;2.83;;
49109;SDS011;34921;52.320;16.142;2023-05-07T14:02:55;5.67;;;2.33;;
49109;SDS011;34921;52.320;16.142;2023-05-07T14:05:23;7.78;;;2.72;;
49109;SDS011;34921;52.320;16.142;2023-05-07T14:07:52;8.48;;;3.27;;
49109;SDS011;34921;52.320;16.142;2023-05-07T14:10:20;5.55;;;2.55;;
49109;SDS011;34921;52.320;16.142;2023-05-07T14:12:48;7.00;;;2.83;;
49109;SDS011;34921;52.320;16.142;2023-05-07T14:15:17;3.87;;;2.12;;
49109;SDS011;34921;52.320;16.142;2023-05-07T14:17:45;4.80;;;2.40;;
49109;SDS011;34921;52.320;16.142;2023-05-07T14:20:13;5.97;;;3.25;;
49109;SDS011;34921;52.320;16.142;2023-05-07T14:22:41;9.90;;;3.67;;
49109;SDS011;34921;52.320;16.142;2023-05-07T14:25:09;9.50;;;3.92;;
49109;SDS011;34921;52.320;16.142;2023-05-07T14:27:37;7.35;;;3.10;;
49109;SDS011;34921;52.320;16.142;2023-05-07T14:30:06;18.45;;;6.33;;
49109;SDS011;34921;52.320;16.142;2023-05-07T14:32:35;12.60;;;4.42;;
49109;SDS011;34921;52.320;16.142;2023-05-07T14:35:04;10.72;;;4.87;;
49109;SDS011;34921;52.320;16.142;2023-05-07T14:37:32;10.43;;;4.30;;
49109;SDS011;34921;52.320;16.142;2023-05-07T14:40:00;7.33;;;2.75;;
49109;SDS011;34921;52.320;16.142;2023-05-07T14:42:28;7.65;;;3.10;;
49109;SDS011;34921;52.320;16.142;2023-05-07T14:44:56;11.93;;;5.05;;
49109;SDS011;34921;52.320;16.142;2023-05-07T14:47:25;14.83;;;7.10;;
49109;SDS011;34921;52.320;16.142;2023-05-07T14:49:53;12.13;;;4.72;;
49109;SDS011;34921;52.320;16.142;2023-05-07T14:52:22;7.92;;;4.62;;
49109;SDS011;34921;52.320;16.142;2023-05-07T14:54:50;9.28;;;5.08;;
49109;SDS011;34921;52.320;16.142;2023-05-07T14:57:18;8.33;;;4.80;;
49109;SDS011;34921;52.320;16.142;2023-05-07T14:59:46;8.03;;;4.30;;
49109;SDS011;34921;52.320;16.142;2023-05-07T15:02:15;7.33;;;3.52;;
49109;SDS011;34921;52.320;16.142;2023-05-07T15:04:43;5.65;;;2.65;;
49109;SDS011;34921;52.320;16.142;2023-05-07T15:07:14;4.65;;;2.30;;
49109;SDS011;34921;52.320;16.142;2023-05-07T15:09:43;3.72;;;1.90;;
49109;SDS011;34921;52.320;16.142;2023-05-07T15:12:12;5.20;;;2.10;;
49109;SDS011;34921;52.320;16.142;2023-05-07T15:14:41;6.60;;;2.70;;
49109;SDS011;34921;52.320;16.142;2023-05-07T15:17:10;9.55;;;3.25;;
49109;SDS011;34921;52.320;16.142;2023-05-07T15:19:38;4.80;;;2.30;;
49109;SDS011;34921;52.320;16.142;2023-05-07T15:22:07;5.92;;;3.08;;
49109;SDS011;34921;52.320;16.142;2023-05-07T15:24:36;7.92;;;4.30;;
49109;SDS011;34921;52.320;16.142;2023-05-07T15:27:05;8.23;;;3.75;;
49109;SDS011;34921;52.320;16.142;2023-05-07T15:29:34;7.70;;;4.30;;
49109;SDS011;34921;52.320;16.142;2023-05-07T15:32:03;10.85;;;5.67;;
49109;SDS011;34921;52.320;16.142;2023-05-07T15:34:33;17.47;;;7.83;;
49109;SDS011;34921;52.320;16.142;2023-05-07T15:37:02;16.70;;;6.37;;
49109;SDS011;34921;52.320;16.142;2023-05-07T15:39:30;10.72;;;4.03;;
49109;SDS011;34921;52.320;16.142;2023-05-07T15:41:58;9.70;;;3.95;;
49109;SDS011;34921;52.320;16.142;2023-05-07T15:44:27;7.20;;;3.72;;
49109;SDS011;34921;52.320;16.142;2023-05-07T15:49:28;7.95;;;4.65;;
49109;SDS011;34921;52.320;16.142;2023-05-07T15:51:56;8.03;;;4.50;;
49109;SDS011;34921;52.320;16.142;2023-05-07T15:54:24;11.12;;;4.87;;
49109;SDS011;34921;52.320;16.142;2023-05-07T15:56:53;7.50;;;4.10;;
49109;SDS011;34921;52.320;16.142;2023-05-07T15:59:21;7.60;;;5.03;;
49109;SDS011;34921;52.320;16.142;2023-05-07T16:01:49;5.80;;;3.90;;
49109;SDS011;34921;52.320;16.142;2023-05-07T16:04:17;5.25;;;2.87;;
49109;SDS011;34921;52.320;16.142;2023-05-07T16:06:48;5.47;;;2.27;;
49109;SDS011;34921;52.320;16.142;2023-05-07T16:09:16;10.82;;;6.55;;
49109;SDS011;34921;52.320;16.142;2023-05-07T16:11:44;13.70;;;8.28;;
49109;SDS011;34921;52.320;16.142;2023-05-07T16:14:12;10.70;;;6.65;;
49109;SDS011;34921;52.320;16.142;2023-05-07T16:16:40;7.15;;;3.95;;
49109;SDS011;34921;52.320;16.142;2023-05-07T16:19:08;6.37;;;3.10;;
49109;SDS011;34921;52.320;16.142;2023-05-07T16:21:37;5.05;;;3.00;;
49109;SDS011;34921;52.320;16.142;2023-05-07T16:24:05;4.62;;;3.10;;
49109;SDS011;34921;52.320;16.142;2023-05-07T16:26:33;5.20;;;3.15;;
49109;SDS011;34921;52.320;16.142;2023-05-07T16:29:03;7.47;;;3.95;;
49109;SDS011;34921;52.320;16.142;2023-05-07T16:31:31;8.20;;;4.83;;
49109;SDS011;34921;52.320;16.142;2023-05-07T16:34:00;6.45;;;3.47;;
49109;SDS011;34921;52.320;16.142;2023-05-07T16:36:28;5.30;;;2.65;;
49109;SDS011;34921;52.320;16.142;2023-05-07T16:38:56;4.55;;;2.45;;
49109;SDS011;34921;52.320;16.142;2023-05-07T16:41:25;9.73;;;7.70;;
49109;SDS011;34921;52.320;16.142;2023-05-07T16:43:53;11.15;;;8.83;;
49109;SDS011;34921;52.320;16.142;2023-05-07T16:46:23;16.45;;;11.20;;
49109;SDS011;34921;52.320;16.142;2023-05-07T16:48:52;15.75;;;9.35;;
49109;SDS011;34921;52.320;16.142;2023-05-07T16:51:20;13.18;;;6.95;;
49109;SDS011;34921;52.320;16.142;2023-05-07T16:56:22;9.08;;;5.58;;
49109;SDS011;34921;52.320;16.142;2023-05-07T16:58:50;13.28;;;7.30;;
49109;SDS011;34921;52.320;16.142;2023-05-07T17:01:18;31.57;;;16.60;;
49109;SDS011;34921;52.320;16.142;2023-05-07T17:03:46;23.15;;;13.30;;
49109;SDS011;34921;52.320;16.142;2023-05-07T17:06:15;24.18;;;11.33;;
49109;SDS011;34921;52.320;16.142;2023-05-07T17:08:43;13.35;;;8.23;;
49109;SDS011;34921;52.320;16.142;2023-05-07T17:11:11;10.18;;;5.65;;
49109;SDS011;34921;52.320;16.142;2023-05-07T17:13:39;11.85;;;5.40;;
49109;SDS011;34921;52.320;16.142;2023-05-07T17:16:07;9.85;;;5.00;;
49109;SDS011;34921;52.320;16.142;2023-05-07T17:18:36;11.05;;;5.97;;
49109;SDS011;34921;52.320;16.142;2023-05-07T17:21:04;9.20;;;4.22;;
49109;SDS011;34921;52.320;16.142;2023-05-07T17:23:32;8.88;;;5.35;;
49109;SDS011;34921;52.320;16.142;2023-05-07T17:26:00;20.40;;;7.22;;
49109;SDS011;34921;52.320;16.142;2023-05-07T17:28:28;11.95;;;6.45;;
49109;SDS011;34921;52.320;16.142;2023-05-07T17:30:56;11.20;;;7.17;;
49109;SDS011;34921;52.320;16.142;2023-05-07T17:33:24;17.75;;;8.65;;
49109;SDS011;34921;52.320;16.142;2023-05-07T17:35:52;14.70;;;8.35;;
49109;SDS011;34921;52.320;16.142;2023-05-07T17:38:21;34.23;;;17.60;;
49109;SDS011;34921;52.320;16.142;2023-05-07T17:40:49;32.67;;;18.73;;
49109;SDS011;34921;52.320;16.142;2023-05-07T17:43:18;19.73;;;11.22;;
49109;SDS011;34921;52.320;16.142;2023-05-07T17:45:46;22.77;;;12.85;;
49109;SDS011;34921;52.320;16.142;2023-05-07T17:48:14;28.20;;;15.25;;
49109;SDS011;34921;52.320;16.142;2023-05-07T17:50:44;43.78;;;23.77;;
49109;SDS011;34921;52.320;16.142;2023-05-07T17:53:12;32.03;;;18.12;;
49109;SDS011;34921;52.320;16.142;2023-05-07T17:55:41;19.30;;;11.65;;
49109;SDS011;34921;52.320;16.142;2023-05-07T17:58:10;21.12;;;10.10;;
49109;SDS011;34921;52.320;16.142;2023-05-07T18:00:39;21.23;;;10.80;;
49109;SDS011;34921;52.320;16.142;2023-05-07T18:03:07;23.87;;;13.25;;
49109;SDS011;34921;52.320;16.142;2023-05-07T18:05:35;18.35;;;10.35;;
49109;SDS011;34921;52.320;16.142;2023-05-07T18:08:05;30.60;;;16.97;;
49109;SDS011;34921;52.320;16.142;2023-05-07T18:10:34;31.33;;;17.10;;
49109;SDS011;34921;52.320;16.142;2023-05-07T18:13:02;37.20;;;19.50;;
49109;SDS011;34921;52.320;16.142;2023-05-07T18:15:30;35.15;;;16.90;;
49109;SDS011;34921;52.320;16.142;2023-05-07T18:17:59;37.33;;;15.35;;
49109;SDS011;34921;52.320;16.142;2023-05-07T18:20:27;40.08;;;21.23;;
49109;SDS011;34921;52.320;16.142;2023-05-07T18:22:55;39.15;;;21.50;;
49109;SDS011;34921;52.320;16.142;2023-05-07T18:25:23;36.60;;;21.37;;
49109;SDS011;34921;52.320;16.142;2023-05-07T18:27:52;39.73;;;21.27;;
49109;SDS011;34921;52.320;16.142;2023-05-07T18:30:20;70.95;;;39.70;;
49109;SDS011;34921;52.320;16.142;2023-05-07T18:32:49;54.90;;;31.52;;
49109;SDS011;34921;52.320;16.142;2023-05-07T18:35:17;63.70;;;33.58;;
49109;SDS011;34921;52.320;16.142;2023-05-07T18:37:45;70.87;;;41.75;;
49109;SDS011;34921;52.320;16.142;2023-05-07T18:40:13;60.52;;;33.85;;
49109;SDS011;34921;52.320;16.142;2023-05-07T18:42:42;52.05;;;29.87;;
49109;SDS011;34921;52.320;16.142;2023-05-07T18:45:10;48.70;;;28.27;;
49109;SDS011;34921;52.320;16.142;2023-05-07T18:47:39;49.53;;;30.77;;
49109;SDS011;34921;52.320;16.142;2023-05-07T18:50:07;49.18;;;32.73;;
49109;SDS011;34921;52.320;16.142;2023-05-07T18:52:35;52.17;;;29.92;;
49109;SDS011;34921;52.320;16.142;2023-05-07T18:55:05;78.07;;;41.83;;
49109;SDS011;34921;52.320;16.142;2023-05-07T18:57:33;72.45;;;37.80;;
49109;SDS011;34921;52.320;16.142;2023-05-07T19:00:01;65.83;;;35.23;;
49109;SDS011;34921;52.320;16.142;2023-05-07T19:02:33;68.33;;;37.85;;
49109;SDS011;34921;52.320;16.142;2023-05-07T19:05:01;66.85;;;36.65;;
49109;SDS011;34921;52.320;16.142;2023-05-07T19:07:30;62.13;;;34.73;;
49109;SDS011;34921;52.320;16.142;2023-05-07T19:09:58;82.80;;;47.53;;
49109;SDS011;34921;52.320;16.142;2023-05-07T19:12:26;66.20;;;37.67;;
49109;SDS011;34921;52.320;16.142;2023-05-07T19:14:54;70.37;;;42.10;;
49109;SDS011;34921;52.320;16.142;2023-05-07T19:17:22;71.85;;;43.68;;
49109;SDS011;34921;52.320;16.142;2023-05-07T19:19:51;72.97;;;41.02;;
49109;SDS011;34921;52.320;16.142;2023-05-07T19:22:19;69.45;;;40.45;;
